Tasman Sea — WDB5559 — position and weather

sailwx.info

Track history (hours):
 
Tides and Currents Weather Stations Pressure Air Temp Water Temp Dewpoint Dewpoint Depression Visibility Wind Speed Wind Dir Waves Ship Positions

Tasman Sea

Owner: Kirby Offshore Marine, LLC, Staten Island, NY. More information available from US FCC via Universal Licensing System and Coast Guard Vessel Documentation Center.

Last reported at 2017-Sep-20 16:23 UTC. Time now 2017-Sep-21 05:09 UTC.
Position N 36°50' W 075°53'.

Length 36 m; draft 6.7 m.

Type: Tug. MMSI: 366910960.

Date/timePositionNaut miles runAvg speedWind from/ knotsBaromVisibWave heightAir tempDewpointWater temp
2017-Sep-20 16:23N 36°50' W 075°53'3 6.6
2017-Sep-20 16:00N 36°52' W 075°54'3 6.3
2017-Sep-20 15:30N 36°55' W 075°56'3 5.8
2017-Sep-20 15:00N 36°56' W 075°59'5 5.2
2017-Sep-20 14:00N 36°58' W 076°05'3 5.1
2017-Sep-20 13:30N 36°59' W 076°08'  
2017-Sep-17 11:58N 36°59' W 076°07'3 7.5
2017-Sep-17 11:31N 36°57' W 076°03'27 5.7
2017-Sep-17 06:50N 37°14' W 075°37'3 6.6
2017-Sep-17 06:24N 37°16' W 075°35'3 6.5
2017-Sep-17 05:57N 37°19' W 075°33'19 6.4
2017-Sep-17 02:56N 37°36' W 075°21'3 6.3
2017-Sep-17 02:30N 37°38' W 075°19'3 6.4
2017-Sep-17 02:00N 37°40' W 075°17'5 6.3
2017-Sep-17 01:08N 37°45' W 075°13'1 6.3
2017-Sep-17 00:59N 37°46' W 075°12'3 6.2
2017-Sep-17 00:30N 37°48' W 075°10'3 6.2
2017-Sep-17 00:00N 37°50' W 075°07'4 6.2
2017-Sep-16 23:23N 37°53' W 075°04'35 6.2
2017-Sep-16 17:47N 38°24' W 074°42'4 6.5
2017-Sep-16 17:06N 38°28' W 074°40'2 6.5
2017-Sep-16 16:45N 38°30' W 074°39'3 6.5
2017-Sep-16 16:21N 38°33' W 074°38'2 6.4
2017-Sep-16 16:00N 38°35' W 074°37'3 6.5
2017-Sep-16 15:30N 38°38' W 074°36'4 6.6
2017-Sep-16 14:52N 38°41' W 074°33'2 6.5
2017-Sep-16 14:29N 38°44' W 074°32'3 6.5
2017-Sep-16 14:01N 38°47' W 074°31'3 6.5
2017-Sep-16 13:31N 38°50' W 074°29'3 6.3
2017-Sep-16 13:00N 38°53' W 074°28'3 6.5
2017-Sep-16 12:30N 38°56' W 074°26'3 6.3
2017-Sep-16 12:00N 38°59' W 074°25'3 6.2
2017-Sep-16 11:31N 39°01' W 074°24'3 6.3
2017-Sep-16 11:01N 39°04' W 074°22'3 6.2
2017-Sep-16 10:30N 39°07' W 074°21'3 6.2
2017-Sep-16 10:01N 39°10' W 074°19'3 6.1
2017-Sep-16 09:30N 39°13' W 074°18'3 6.2
2017-Sep-16 09:00N 39°16' W 074°17'3 6.2
2017-Sep-16 08:31N 39°19' W 074°15'3 6.2
2017-Sep-16 08:00N 39°22' W 074°14'3 6.1
2017-Sep-16 07:30N 39°25' W 074°12'3 6.0
2017-Sep-16 07:00N 39°27' W 074°11'3 6.2
2017-Sep-16 06:30N 39°30' W 074°09'3 6.2
2017-Sep-16 06:00N 39°33' W 074°07'3 6.2
2017-Sep-16 05:30N 39°36' W 074°05'3 6.2
2017-Sep-16 05:00N 39°38' W 074°03'3 6.1
2017-Sep-16 04:30N 39°41' W 074°02'3 6.1
2017-Sep-16 04:00N 39°44' W 073°60'3 6.0
2017-Sep-16 03:30N 39°47' W 073°59'3 6.1
2017-Sep-16 03:00N 39°50' W 073°58'3 6.2
2017-Sep-16 02:31N 39°53' W 073°58'3 6.2
2017-Sep-16 02:00N 39°56' W 073°57'7 6.2
2017-Sep-16 00:54N 40°03' W 073°56'3 6.3
2017-Sep-16 00:25N 40°06' W 073°56'6 6.3
2017-Sep-15 23:32N 40°11' W 073°55'3 6.1
2017-Sep-15 23:07N 40°14' W 073°55'1 6.1
2017-Sep-15 23:00N 40°14' W 073°55'3 6.1
2017-Sep-15 22:27N 40°18' W 073°55'3 6.1
2017-Sep-15 21:56N 40°21' W 073°54'5 6.0
2017-Sep-15 21:06N 40°26' W 073°55'1 5.9
2017-Sep-15 20:58N 40°27' W 073°56'3 5.8
2017-Sep-15 20:26N 40°29' W 073°59'2 5.7
2017-Sep-15 20:00N 40°29' W 074°02'11 1.9
2017-Sep-15 14:05N 40°33' W 074°15'0 0.0
2017-Sep-15 13:53N 40°33' W 074°15'0 0.0
2017-Sep-15 10:59N 40°33' W 074°15'0 0.0
2017-Sep-15 10:29N 40°33' W 074°15'0 0.0
2017-Sep-15 09:59N 40°33' W 074°15'0 0.0
2017-Sep-15 09:23N 40°33' W 074°15'0 0.0
2017-Sep-15 08:53N 40°33' W 074°15'0 0.0
2017-Sep-15 08:29N 40°33' W 074°15'0 0.0
2017-Sep-15 07:59N 40°33' W 074°15'0 0.0
2017-Sep-15 07:23N 40°33' W 074°15'0 0.0
2017-Sep-15 06:59N 40°33' W 074°15'0 0.0
2017-Sep-15 06:29N 40°33' W 074°15'1 1.9
2017-Sep-15 05:57N 40°33' W 074°14'4 8.0
2017-Sep-15 05:30N 40°37' W 074°12'3 6.6
2017-Sep-15 05:00N 40°39' W 074°09'2 3.2
2017-Sep-15 04:29N 40°39' W 074°07'0 0.0
2017-Sep-15 03:59N 40°39' W 074°07'0 0.0
2017-Sep-15 03:29N 40°39' W 074°07'0 0.0
2017-Sep-15 02:59N 40°39' W 074°07'0 0.0
2017-Sep-15 02:29N 40°39' W 074°07'0 0.0
2017-Sep-15 01:59N 40°39' W 074°07'0 0.1
2017-Sep-15 01:29N 40°39' W 074°07'0 0.0
2017-Sep-15 00:59N 40°39' W 074°07'0 0.0
2017-Sep-15 00:26N 40°39' W 074°07'0 0.0
2017-Sep-14 23:59N 40°39' W 074°07'1 2.9
2017-Sep-14 23:30N 40°39' W 074°08'3 7.0
2017-Sep-14 23:00N 40°37' W 074°12'4 6.4
2017-Sep-14 22:21N 40°33' W 074°15'0 0.3
2017-Sep-14 21:15N 40°33' W 074°15'0 0.2
2017-Sep-14 19:26N 40°33' W 074°15'2 5.4
2017-Sep-14 19:00N 40°34' W 074°13'3 6.6
2017-Sep-14 18:29N 40°38' W 074°12'3 6.6
2017-Sep-14 18:00N 40°39' W 074°08'4 7.6
2017-Sep-14 17:30N 40°39' W 074°03'0 0.3
2017-Sep-14 17:00N 40°39' W 074°03'0 0.2
2017-Sep-14 16:30N 40°39' W 074°03'0 0.2
2017-Sep-14 16:00N 40°39' W 074°03'0 0.1
2017-Sep-14 15:30N 40°39' W 074°03'0 0.0
2017-Sep-14 15:00N 40°39' W 074°03'0 0.0
2017-Sep-14 14:30N 40°39' W 074°03'0 0.0
2017-Sep-14 14:00N 40°39' W 074°03'0 0.1
2017-Sep-14 13:30N 40°39' W 074°03'0 0.1
2017-Sep-14 13:00N 40°39' W 074°03'0 0.1
2017-Sep-14 12:30N 40°39' W 074°03'0 0.0
2017-Sep-14 12:00N 40°39' W 074°03'0 0.0
2017-Sep-14 11:30N 40°39' W 074°03'0 0.0
2017-Sep-14 11:00N 40°39' W 074°03'0 0.0
2017-Sep-14 10:30N 40°39' W 074°03'0 0.2
2017-Sep-14 10:00N 40°39' W 074°03'0 0.2
2017-Sep-14 09:30N 40°39' W 074°03'0 0.1
2017-Sep-14 09:00N 40°39' W 074°03'0 0.0
2017-Sep-14 08:30N 40°39' W 074°03'0 0.1
2017-Sep-14 08:00N 40°39' W 074°03'0 0.0
2017-Sep-14 07:30N 40°39' W 074°03'0 0.1
2017-Sep-14 06:59N 40°39' W 074°03'0 0.0
2017-Sep-14 06:30N 40°39' W 074°03'0 0.1
2017-Sep-14 06:00N 40°39' W 074°03'0 0.1
2017-Sep-14 05:30N 40°39' W 074°03'0 0.3
2017-Sep-14 05:00N 40°39' W 074°03'0 0.2
2017-Sep-14 04:30N 40°39' W 074°03'0 0.0
2017-Sep-14 04:00N 40°39' W 074°03'0 0.1
2017-Sep-14 03:30N 40°39' W 074°03'0 0.1
2017-Sep-14 03:00N 40°39' W 074°03'0 0.0
2017-Sep-14 02:29N 40°39' W 074°03'0 0.0
2017-Sep-14 02:00N 40°39' W 074°03'0 0.0
2017-Sep-14 01:29N 40°39' W 074°03'0 0.0
2017-Sep-14 00:59N 40°39' W 074°03'0 0.0
2017-Sep-14 00:29N 40°39' W 074°03'0 0.0
2017-Sep-14 00:00N 40°39' W 074°03'0 0.0
2017-Sep-13 23:29N 40°39' W 074°03'0 0.0
2017-Sep-13 22:59N 40°39' W 074°03'0 0.0
2017-Sep-13 22:30N 40°39' W 074°03'0 0.2
2017-Sep-13 21:59N 40°39' W 074°03'0 0.0
2017-Sep-13 21:30N 40°39' W 074°03'0 0.2
2017-Sep-13 21:00N 40°39' W 074°03'0 0.2
2017-Sep-13 20:30N 40°39' W 074°03'3 7.0
2017-Sep-13 20:00N 40°39' W 074°07'2 3.1
2017-Sep-13 19:23N 40°39' W 074°10'0 0.0
2017-Sep-13 18:53N 40°39' W 074°10'0 0.0
2017-Sep-13 18:29N 40°39' W 074°10'0 0.0
2017-Sep-13 17:47N 40°39' W 074°10'0 0.0
2017-Sep-13 17:17N 40°39' W 074°10'0 0.0
2017-Sep-13 16:59N 40°39' W 074°10'0 0.0
2017-Sep-13 15:53N 40°39' W 074°10'0 0.0
2017-Sep-13 15:29N 40°39' W 074°10'0 0.0
2017-Sep-13 14:59N 40°39' W 074°10'0 0.0
2017-Sep-13 14:26N 40°39' W 074°10'0 0.0
2017-Sep-13 13:59N 40°39' W 074°10'0 0.0
2017-Sep-13 13:26N 40°39' W 074°10'0 0.0
2017-Sep-13 12:56N 40°39' W 074°10'0 0.0
2017-Sep-13 12:29N 40°39' W 074°10'0 0.0
2017-Sep-13 11:59N 40°39' W 074°10'0 0.0
2017-Sep-13 11:29N 40°39' W 074°10'0 0.0
2017-Sep-13 11:00N 40°39' W 074°10'3 5.5
2017-Sep-13 10:30N 40°39' W 074°06'3 4.9
2017-Sep-13 10:00N 40°39' W 074°03'0 0.2
2017-Sep-13 09:30N 40°39' W 074°03'0 0.0
2017-Sep-13 09:00N 40°39' W 074°03'0 0.2
2017-Sep-13 08:30N 40°39' W 074°03'0 0.2
2017-Sep-13 08:00N 40°39' W 074°03'0 0.1
2017-Sep-13 07:30N 40°39' W 074°03'0 0.0
2017-Sep-13 07:00N 40°39' W 074°03'0 0.0
2017-Sep-13 06:30N 40°39' W 074°03'0 0.0
2017-Sep-13 06:00N 40°39' W 074°03'0 0.0
2017-Sep-13 05:30N 40°39' W 074°03'0 0.0
2017-Sep-13 05:00N 40°39' W 074°03'0 0.1
2017-Sep-13 04:30N 40°39' W 074°03'0 0.1
2017-Sep-13 04:00N 40°39' W 074°03'0 0.3
2017-Sep-13 03:30N 40°39' W 074°03'0 0.1
2017-Sep-13 03:00N 40°39' W 074°03'0 0.1
2017-Sep-13 02:30N 40°39' W 074°03'0 0.0
2017-Sep-13 02:00N 40°39' W 074°03'0 0.0
2017-Sep-13 01:30N 40°39' W 074°03'0 0.0
2017-Sep-13 01:00N 40°39' W 074°03'0 0.0
2017-Sep-13 00:30N 40°39' W 074°03'0 0.0
2017-Sep-13 00:00N 40°39' W 074°03'0 0.0
2017-Sep-12 23:30N 40°39' W 074°03'0 0.0
2017-Sep-12 23:00N 40°39' W 074°03'0 0.0
2017-Sep-12 22:30N 40°39' W 074°03'0 0.0
2017-Sep-12 22:00N 40°39' W 074°03'0 0.0
2017-Sep-12 21:30N 40°39' W 074°03'0 0.1
2017-Sep-12 20:57N 40°39' W 074°03'0 0.2
2017-Sep-12 20:30N 40°39' W 074°03'0 0.3
2017-Sep-12 20:00N 40°39' W 074°03'0 0.1
2017-Sep-12 19:30N 40°39' W 074°03'0 0.1
2017-Sep-12 19:00N 40°39' W 074°03'0 0.0
2017-Sep-12 18:30N 40°39' W 074°03'1 1.8
2017-Sep-12 18:00N 40°39' W 074°04'4 7.8
2017-Sep-12 17:29N 40°38' W 074°09'0 0.7
2017-Sep-12 17:00N 40°38' W 074°10'0 0.2
2017-Sep-12 16:31N 40°39' W 074°10'4 8.6
2017-Sep-12 16:00N 40°39' W 074°04'1 1.4
2017-Sep-12 15:30N 40°39' W 074°03'4 8.9
2017-Sep-12 15:00N 40°38' W 074°09'1 1.0
2017-Sep-12 14:28N 40°39' W 074°10'0 0.0
2017-Sep-12 13:55N 40°39' W 074°10'0 0.0
2017-Sep-12 13:22N 40°39' W 074°10'0 0.0
2017-Sep-12 12:58N 40°39' W 074°10'0 0.0
2017-Sep-12 12:28N 40°39' W 074°10'0 0.0
2017-Sep-12 11:58N 40°39' W 074°10'0 0.0
2017-Sep-12 11:28N 40°39' W 074°10'0 0.0
2017-Sep-12 11:00N 40°39' W 074°10'3 6.7
2017-Sep-12 10:30N 40°39' W 074°06'2 3.7
2017-Sep-12 09:58N 40°39' W 074°03'0 0.0
2017-Sep-12 09:28N 40°39' W 074°03'0 0.0
2017-Sep-12 08:55N 40°39' W 074°03'0 0.1
2017-Sep-12 08:28N 40°39' W 074°03'0 0.1
2017-Sep-12 07:58N 40°39' W 074°03'0 0.2
2017-Sep-12 07:28N 40°39' W 074°03'0 0.2
2017-Sep-12 06:58N 40°39' W 074°03'0 0.1
2017-Sep-12 06:28N 40°39' W 074°03'0 0.0
2017-Sep-12 05:58N 40°39' W 074°03'0 0.1
2017-Sep-12 05:28N 40°39' W 074°03'0 0.0
2017-Sep-12 04:58N 40°39' W 074°03'0 0.0
2017-Sep-12 04:28N 40°39' W 074°03'0 0.1
2017-Sep-12 03:58N 40°39' W 074°03'0 0.1
2017-Sep-12 03:28N 40°39' W 074°03'0 0.0
2017-Sep-12 02:58N 40°39' W 074°03'0 0.0
2017-Sep-12 02:28N 40°39' W 074°03'0 0.2
2017-Sep-12 01:58N 40°39' W 074°03'0 0.2
2017-Sep-12 01:28N 40°39' W 074°03'0 0.1
2017-Sep-12 00:58N 40°39' W 074°03'0 0.1
2017-Sep-12 00:28N 40°39' W 074°03'1 1.6
2017-Sep-12 00:00N 40°38' W 074°03'3 5.8
2017-Sep-11 23:28N 40°35' W 074°01'0 0.0
2017-Sep-11 22:55N 40°35' W 074°01'0 0.0
2017-Sep-11 22:29N 40°35' W 074°01'0 0.0
2017-Sep-11 21:58N 40°35' W 074°01'0 0.0
2017-Sep-11 21:29N 40°35' W 074°01'0 0.0
2017-Sep-11 20:59N 40°35' W 074°01'0 0.0
2017-Sep-11 20:28N 40°35' W 074°01'0 0.0
2017-Sep-11 19:59N 40°35' W 074°01'0 0.0
2017-Sep-11 19:10N 40°35' W 074°01'0 0.2
2017-Sep-11 18:58N 40°35' W 074°01'0 0.0
2017-Sep-11 18:28N 40°35' W 074°01'0 0.0
2017-Sep-11 17:59N 40°35' W 074°01'0 0.0
2017-Sep-11 17:29N 40°35' W 074°01'0 0.1
2017-Sep-11 16:58N 40°35' W 074°01'0 0.1
2017-Sep-11 16:29N 40°35' W 074°01'0 0.1
2017-Sep-11 15:56N 40°36' W 074°01'0 0.0
2017-Sep-11 15:28N 40°35' W 074°01'0 0.0
2017-Sep-11 14:55N 40°35' W 074°01'0 0.1
2017-Sep-11 13:52N 40°36' W 074°01'0 0.1
2017-Sep-11 13:26N 40°36' W 074°01'0 0.2
2017-Sep-11 12:58N 40°35' W 074°01'0 0.0
2017-Sep-11 12:29N 40°35' W 074°01'0 0.0
2017-Sep-11 11:59N 40°35' W 074°01'0 0.0
2017-Sep-11 11:25N 40°35' W 074°01'0 0.1
2017-Sep-11 10:55N 40°35' W 074°01'0 0.0
2017-Sep-11 10:28N 40°35' W 074°01'0 0.0
2017-Sep-11 09:56N 40°35' W 074°01'0 0.0
2017-Sep-11 09:25N 40°35' W 074°01'0 0.0
2017-Sep-11 08:55N 40°35' W 074°01'0 0.0
2017-Sep-11 08:25N 40°35' W 074°01'0 0.0
2017-Sep-11 07:55N 40°35' W 074°01'0 0.0
2017-Sep-11 07:28N 40°35' W 074°01'0 0.0
2017-Sep-11 06:55N 40°35' W 074°01'0 0.1
2017-Sep-11 06:22N 40°35' W 074°01'0 0.0
2017-Sep-11 05:58N 40°35' W 074°01'0 0.0
2017-Sep-11 05:28N 40°35' W 074°01'0 0.0
2017-Sep-11 04:58N 40°35' W 074°01'0 0.1
2017-Sep-11 04:28N 40°35' W 074°01'0 0.1
2017-Sep-11 03:59N 40°35' W 074°01'0 0.0
2017-Sep-11 03:28N 40°35' W 074°01'0 0.0
2017-Sep-11 02:58N 40°35' W 074°01'0 0.1
2017-Sep-11 02:28N 40°36' W 074°01'0 0.1
2017-Sep-11 01:58N 40°36' W 074°01'0 0.0
2017-Sep-11 01:28N 40°36' W 074°01'0 0.2
2017-Sep-11 00:58N 40°36' W 074°01'0 0.1
2017-Sep-11 00:25N 40°35' W 074°01'0 0.0
2017-Sep-10 23:55N 40°35' W 074°01'0 0.1
2017-Sep-10 23:28N 40°35' W 074°01'0 0.1
2017-Sep-10 22:58N 40°35' W 074°01'0 0.0
2017-Sep-10 22:22N 40°35' W 074°01'0 0.0
2017-Sep-10 21:55N 40°35' W 074°01'0 0.0
2017-Sep-10 21:28N 40°35' W 074°01'0 0.0
2017-Sep-10 20:49N 40°35' W 074°01'0 0.0
2017-Sep-10 20:28N 40°35' W 074°01'0 0.0
2017-Sep-10 19:52N 40°35' W 074°01'0 0.0
2017-Sep-10 19:28N 40°35' W 074°01'0 0.0
2017-Sep-10 18:56N 40°35' W 074°01'0 0.0
2017-Sep-10 18:28N 40°35' W 074°01'0 0.0
2017-Sep-10 17:58N 40°35' W 074°01'0 0.0
2017-Sep-10 17:25N 40°35' W 074°01'0 0.0
2017-Sep-10 16:58N 40°35' W 074°01'0 0.0
2017-Sep-10 16:28N 40°35' W 074°01'  
Track history (hours):
 
Tides and Currents Weather Stations Pressure Air Temp Water Temp Dewpoint Dewpoint Depression Visibility Wind Speed Wind Dir Waves Ship Positions

Tasman Sea

Owner: Kirby Offshore Marine, LLC, Staten Island, NY. More information available from US FCC via Universal Licensing System and Coast Guard Vessel Documentation Center.

Last reported at 2017-Sep-20 16:23 UTC. Time now 2017-Sep-21 05:09 UTC.
Position N 36°50' W 075°53'.

Length 36 m; draft 6.7 m.

Type: Tug. MMSI: 366910960.

Date/timePositionNaut miles runAvg speedWind from/ knotsBaromVisibWave heightAir tempDewpointWater temp
2017-Sep-20 16:23N 36°50' W 075°53'3 6.6
2017-Sep-20 16:00N 36°52' W 075°54'3 6.3
2017-Sep-20 15:30N 36°55' W 075°56'3 5.8
2017-Sep-20 15:00N 36°56' W 075°59'5 5.2
2017-Sep-20 14:00N 36°58' W 076°05'3 5.1
2017-Sep-20 13:30N 36°59' W 076°08'  
2017-Sep-17 11:58N 36°59' W 076°07'3 7.5
2017-Sep-17 11:31N 36°57' W 076°03'27 5.7
2017-Sep-17 06:50N 37°14' W 075°37'3 6.6
2017-Sep-17 06:24N 37°16' W 075°35'3 6.5
2017-Sep-17 05:57N 37°19' W 075°33'19 6.4
2017-Sep-17 02:56N 37°36' W 075°21'3 6.3
2017-Sep-17 02:30N 37°38' W 075°19'3 6.4
2017-Sep-17 02:00N 37°40' W 075°17'5 6.3
2017-Sep-17 01:08N 37°45' W 075°13'1 6.3
2017-Sep-17 00:59N 37°46' W 075°12'3 6.2
2017-Sep-17 00:30N 37°48' W 075°10'3 6.2
2017-Sep-17 00:00N 37°50' W 075°07'4 6.2
2017-Sep-16 23:23N 37°53' W 075°04'35 6.2
2017-Sep-16 17:47N 38°24' W 074°42'4 6.5
2017-Sep-16 17:06N 38°28' W 074°40'2 6.5
2017-Sep-16 16:45N 38°30' W 074°39'3 6.5
2017-Sep-16 16:21N 38°33' W 074°38'2 6.4
2017-Sep-16 16:00N 38°35' W 074°37'3 6.5
2017-Sep-16 15:30N 38°38' W 074°36'4 6.6
2017-Sep-16 14:52N 38°41' W 074°33'2 6.5
2017-Sep-16 14:29N 38°44' W 074°32'3 6.5
2017-Sep-16 14:01N 38°47' W 074°31'3 6.5
2017-Sep-16 13:31N 38°50' W 074°29'3 6.3
2017-Sep-16 13:00N 38°53' W 074°28'3 6.5
2017-Sep-16 12:30N 38°56' W 074°26'3 6.3
2017-Sep-16 12:00N 38°59' W 074°25'3 6.2
2017-Sep-16 11:31N 39°01' W 074°24'3 6.3
2017-Sep-16 11:01N 39°04' W 074°22'3 6.2
2017-Sep-16 10:30N 39°07' W 074°21'3 6.2
2017-Sep-16 10:01N 39°10' W 074°19'3 6.1
2017-Sep-16 09:30N 39°13' W 074°18'3 6.2
2017-Sep-16 09:00N 39°16' W 074°17'3 6.2
2017-Sep-16 08:31N 39°19' W 074°15'3 6.2
2017-Sep-16 08:00N 39°22' W 074°14'3 6.1
2017-Sep-16 07:30N 39°25' W 074°12'3 6.0
2017-Sep-16 07:00N 39°27' W 074°11'3 6.2
2017-Sep-16 06:30N 39°30' W 074°09'3 6.2
2017-Sep-16 06:00N 39°33' W 074°07'3 6.2
2017-Sep-16 05:30N 39°36' W 074°05'3 6.2
2017-Sep-16 05:00N 39°38' W 074°03'3 6.1
2017-Sep-16 04:30N 39°41' W 074°02'3 6.1
2017-Sep-16 04:00N 39°44' W 073°60'3 6.0
2017-Sep-16 03:30N 39°47' W 073°59'3 6.1
2017-Sep-16 03:00N 39°50' W 073°58'3 6.2
2017-Sep-16 02:31N 39°53' W 073°58'3 6.2
2017-Sep-16 02:00N 39°56' W 073°57'7 6.2
2017-Sep-16 00:54N 40°03' W 073°56'3 6.3
2017-Sep-16 00:25N 40°06' W 073°56'6 6.3
2017-Sep-15 23:32N 40°11' W 073°55'3 6.1
2017-Sep-15 23:07N 40°14' W 073°55'1 6.1
2017-Sep-15 23:00N 40°14' W 073°55'3 6.1
2017-Sep-15 22:27N 40°18' W 073°55'3 6.1
2017-Sep-15 21:56N 40°21' W 073°54'5 6.0
2017-Sep-15 21:06N 40°26' W 073°55'1 5.9
2017-Sep-15 20:58N 40°27' W 073°56'3 5.8
2017-Sep-15 20:26N 40°29' W 073°59'2 5.7
2017-Sep-15 20:00N 40°29' W 074°02'11 1.9
2017-Sep-15 14:05N 40°33' W 074°15'0 0.0
2017-Sep-15 13:53N 40°33' W 074°15'0 0.0
2017-Sep-15 10:59N 40°33' W 074°15'0 0.0
2017-Sep-15 10:29N 40°33' W 074°15'0 0.0
2017-Sep-15 09:59N 40°33' W 074°15'0 0.0
2017-Sep-15 09:23N 40°33' W 074°15'0 0.0
2017-Sep-15 08:53N 40°33' W 074°15'0 0.0
2017-Sep-15 08:29N 40°33' W 074°15'0 0.0
2017-Sep-15 07:59N 40°33' W 074°15'0 0.0
2017-Sep-15 07:23N 40°33' W 074°15'0 0.0
2017-Sep-15 06:59N 40°33' W 074°15'0 0.0
2017-Sep-15 06:29N 40°33' W 074°15'1 1.9
2017-Sep-15 05:57N 40°33' W 074°14'4 8.0
2017-Sep-15 05:30N 40°37' W 074°12'3 6.6
2017-Sep-15 05:00N 40°39' W 074°09'2 3.2
2017-Sep-15 04:29N 40°39' W 074°07'0 0.0
2017-Sep-15 03:59N 40°39' W 074°07'0 0.0
2017-Sep-15 03:29N 40°39' W 074°07'0 0.0
2017-Sep-15 02:59N 40°39' W 074°07'0 0.0
2017-Sep-15 02:29N 40°39' W 074°07'0 0.0
2017-Sep-15 01:59N 40°39' W 074°07'0 0.1
2017-Sep-15 01:29N 40°39' W 074°07'0 0.0
2017-Sep-15 00:59N 40°39' W 074°07'0 0.0
2017-Sep-15 00:26N 40°39' W 074°07'0 0.0
2017-Sep-14 23:59N 40°39' W 074°07'1 2.9
2017-Sep-14 23:30N 40°39' W 074°08'3 7.0
2017-Sep-14 23:00N 40°37' W 074°12'4 6.4
2017-Sep-14 22:21N 40°33' W 074°15'0 0.3
2017-Sep-14 21:15N 40°33' W 074°15'0 0.2
2017-Sep-14 19:26N 40°33' W 074°15'2 5.4
2017-Sep-14 19:00N 40°34' W 074°13'3 6.6
2017-Sep-14 18:29N 40°38' W 074°12'3 6.6
2017-Sep-14 18:00N 40°39' W 074°08'4 7.6
2017-Sep-14 17:30N 40°39' W 074°03'0 0.3
2017-Sep-14 17:00N 40°39' W 074°03'0 0.2
2017-Sep-14 16:30N 40°39' W 074°03'0 0.2
2017-Sep-14 16:00N 40°39' W 074°03'0 0.1
2017-Sep-14 15:30N 40°39' W 074°03'0 0.0
2017-Sep-14 15:00N 40°39' W 074°03'0 0.0
2017-Sep-14 14:30N 40°39' W 074°03'0 0.0
2017-Sep-14 14:00N 40°39' W 074°03'0 0.1
2017-Sep-14 13:30N 40°39' W 074°03'0 0.1
2017-Sep-14 13:00N 40°39' W 074°03'0 0.1
2017-Sep-14 12:30N 40°39' W 074°03'0 0.0
2017-Sep-14 12:00N 40°39' W 074°03'0 0.0
2017-Sep-14 11:30N 40°39' W 074°03'0 0.0
2017-Sep-14 11:00N 40°39' W 074°03'0 0.0
2017-Sep-14 10:30N 40°39' W 074°03'0 0.2
2017-Sep-14 10:00N 40°39' W 074°03'0 0.2
2017-Sep-14 09:30N 40°39' W 074°03'0 0.1
2017-Sep-14 09:00N 40°39' W 074°03'0 0.0
2017-Sep-14 08:30N 40°39' W 074°03'0 0.1
2017-Sep-14 08:00N 40°39' W 074°03'0 0.0
2017-Sep-14 07:30N 40°39' W 074°03'0 0.1
2017-Sep-14 06:59N 40°39' W 074°03'0 0.0
2017-Sep-14 06:30N 40°39' W 074°03'0 0.1
2017-Sep-14 06:00N 40°39' W 074°03'0 0.1
2017-Sep-14 05:30N 40°39' W 074°03'0 0.3
2017-Sep-14 05:00N 40°39' W 074°03'0 0.2
2017-Sep-14 04:30N 40°39' W 074°03'0 0.0
2017-Sep-14 04:00N 40°39' W 074°03'0 0.1
2017-Sep-14 03:30N 40°39' W 074°03'0 0.1
2017-Sep-14 03:00N 40°39' W 074°03'0 0.0
2017-Sep-14 02:29N 40°39' W 074°03'0 0.0
2017-Sep-14 02:00N 40°39' W 074°03'0 0.0
2017-Sep-14 01:29N 40°39' W 074°03'0 0.0
2017-Sep-14 00:59N 40°39' W 074°03'0 0.0
2017-Sep-14 00:29N 40°39' W 074°03'0 0.0
2017-Sep-14 00:00N 40°39' W 074°03'0 0.0
2017-Sep-13 23:29N 40°39' W 074°03'0 0.0
2017-Sep-13 22:59N 40°39' W 074°03'0 0.0
2017-Sep-13 22:30N 40°39' W 074°03'0 0.2
2017-Sep-13 21:59N 40°39' W 074°03'0 0.0
2017-Sep-13 21:30N 40°39' W 074°03'0 0.2
2017-Sep-13 21:00N 40°39' W 074°03'0 0.2
2017-Sep-13 20:30N 40°39' W 074°03'3 7.0
2017-Sep-13 20:00N 40°39' W 074°07'2 3.1
2017-Sep-13 19:23N 40°39' W 074°10'0 0.0
2017-Sep-13 18:53N 40°39' W 074°10'0 0.0
2017-Sep-13 18:29N 40°39' W 074°10'0 0.0
2017-Sep-13 17:47N 40°39' W 074°10'0 0.0
2017-Sep-13 17:17N 40°39' W 074°10'0 0.0
2017-Sep-13 16:59N 40°39' W 074°10'0 0.0
2017-Sep-13 15:53N 40°39' W 074°10'0 0.0
2017-Sep-13 15:29N 40°39' W 074°10'0 0.0
2017-Sep-13 14:59N 40°39' W 074°10'0 0.0
2017-Sep-13 14:26N 40°39' W 074°10'0 0.0
2017-Sep-13 13:59N 40°39' W 074°10'0 0.0
2017-Sep-13 13:26N 40°39' W 074°10'0 0.0
2017-Sep-13 12:56N 40°39' W 074°10'0 0.0
2017-Sep-13 12:29N 40°39' W 074°10'0 0.0
2017-Sep-13 11:59N 40°39' W 074°10'0 0.0
2017-Sep-13 11:29N 40°39' W 074°10'0 0.0
2017-Sep-13 11:00N 40°39' W 074°10'3 5.5
2017-Sep-13 10:30N 40°39' W 074°06'3 4.9
2017-Sep-13 10:00N 40°39' W 074°03'0 0.2
2017-Sep-13 09:30N 40°39' W 074°03'0 0.0
2017-Sep-13 09:00N 40°39' W 074°03'0 0.2
2017-Sep-13 08:30N 40°39' W 074°03'0 0.2
2017-Sep-13 08:00N 40°39' W 074°03'0 0.1
2017-Sep-13 07:30N 40°39' W 074°03'0 0.0
2017-Sep-13 07:00N 40°39' W 074°03'0 0.0
2017-Sep-13 06:30N 40°39' W 074°03'0 0.0
2017-Sep-13 06:00N 40°39' W 074°03'0 0.0
2017-Sep-13 05:30N 40°39' W 074°03'0 0.0
2017-Sep-13 05:00N 40°39' W 074°03'0 0.1
2017-Sep-13 04:30N 40°39' W 074°03'0 0.1
2017-Sep-13 04:00N 40°39' W 074°03'0 0.3
2017-Sep-13 03:30N 40°39' W 074°03'0 0.1
2017-Sep-13 03:00N 40°39' W 074°03'0 0.1
2017-Sep-13 02:30N 40°39' W 074°03'0 0.0
2017-Sep-13 02:00N 40°39' W 074°03'0 0.0
2017-Sep-13 01:30N 40°39' W 074°03'0 0.0
2017-Sep-13 01:00N 40°39' W 074°03'0 0.0
2017-Sep-13 00:30N 40°39' W 074°03'0 0.0
2017-Sep-13 00:00N 40°39' W 074°03'0 0.0
2017-Sep-12 23:30N 40°39' W 074°03'0 0.0
2017-Sep-12 23:00N 40°39' W 074°03'0 0.0
2017-Sep-12 22:30N 40°39' W 074°03'0 0.0
2017-Sep-12 22:00N 40°39' W 074°03'0 0.0
2017-Sep-12 21:30N 40°39' W 074°03'0 0.1
2017-Sep-12 20:57N 40°39' W 074°03'0 0.2
2017-Sep-12 20:30N 40°39' W 074°03'0 0.3
2017-Sep-12 20:00N 40°39' W 074°03'0 0.1
2017-Sep-12 19:30N 40°39' W 074°03'0 0.1
2017-Sep-12 19:00N 40°39' W 074°03'0 0.0
2017-Sep-12 18:30N 40°39' W 074°03'1 1.8
2017-Sep-12 18:00N 40°39' W 074°04'4 7.8
2017-Sep-12 17:29N 40°38' W 074°09'0 0.7
2017-Sep-12 17:00N 40°38' W 074°10'0 0.2
2017-Sep-12 16:31N 40°39' W 074°10'4 8.6
2017-Sep-12 16:00N 40°39' W 074°04'1 1.4
2017-Sep-12 15:30N 40°39' W 074°03'4 8.9
2017-Sep-12 15:00N 40°38' W 074°09'1 1.0
2017-Sep-12 14:28N 40°39' W 074°10'0 0.0
2017-Sep-12 13:55N 40°39' W 074°10'0 0.0
2017-Sep-12 13:22N 40°39' W 074°10'0 0.0
2017-Sep-12 12:58N 40°39' W 074°10'0 0.0
2017-Sep-12 12:28N 40°39' W 074°10'0 0.0
2017-Sep-12 11:58N 40°39' W 074°10'0 0.0
2017-Sep-12 11:28N 40°39' W 074°10'0 0.0
2017-Sep-12 11:00N 40°39' W 074°10'3 6.7
2017-Sep-12 10:30N 40°39' W 074°06'2 3.7
2017-Sep-12 09:58N 40°39' W 074°03'0 0.0
2017-Sep-12 09:28N 40°39' W 074°03'0 0.0
2017-Sep-12 08:55N 40°39' W 074°03'0 0.1
2017-Sep-12 08:28N 40°39' W 074°03'0 0.1
2017-Sep-12 07:58N 40°39' W 074°03'0 0.2
2017-Sep-12 07:28N 40°39' W 074°03'0 0.2
2017-Sep-12 06:58N 40°39' W 074°03'0 0.1
2017-Sep-12 06:28N 40°39' W 074°03'0 0.0
2017-Sep-12 05:58N 40°39' W 074°03'0 0.1
2017-Sep-12 05:28N 40°39' W 074°03'0 0.0
2017-Sep-12 04:58N 40°39' W 074°03'0 0.0
2017-Sep-12 04:28N 40°39' W 074°03'0 0.1
2017-Sep-12 03:58N 40°39' W 074°03'0 0.1
2017-Sep-12 03:28N 40°39' W 074°03'0 0.0
2017-Sep-12 02:58N 40°39' W 074°03'0 0.0
2017-Sep-12 02:28N 40°39' W 074°03'0 0.2
2017-Sep-12 01:58N 40°39' W 074°03'0 0.2
2017-Sep-12 01:28N 40°39' W 074°03'0 0.1
2017-Sep-12 00:58N 40°39' W 074°03'0 0.1
2017-Sep-12 00:28N 40°39' W 074°03'1 1.6
2017-Sep-12 00:00N 40°38' W 074°03'3 5.8
2017-Sep-11 23:28N 40°35' W 074°01'0 0.0
2017-Sep-11 22:55N 40°35' W 074°01'0 0.0
2017-Sep-11 22:29N 40°35' W 074°01'0 0.0
2017-Sep-11 21:58N 40°35' W 074°01'0 0.0
2017-Sep-11 21:29N 40°35' W 074°01'0 0.0
2017-Sep-11 20:59N 40°35' W 074°01'0 0.0
2017-Sep-11 20:28N 40°35' W 074°01'0 0.0
2017-Sep-11 19:59N 40°35' W 074°01'0 0.0
2017-Sep-11 19:10N 40°35' W 074°01'0 0.2
2017-Sep-11 18:58N 40°35' W 074°01'0 0.0
2017-Sep-11 18:28N 40°35' W 074°01'0 0.0
2017-Sep-11 17:59N 40°35' W 074°01'0 0.0
2017-Sep-11 17:29N 40°35' W 074°01'0 0.1
2017-Sep-11 16:58N 40°35' W 074°01'0 0.1
2017-Sep-11 16:29N 40°35' W 074°01'0 0.1
2017-Sep-11 15:56N 40°36' W 074°01'0 0.0
2017-Sep-11 15:28N 40°35' W 074°01'0 0.0
2017-Sep-11 14:55N 40°35' W 074°01'0 0.1
2017-Sep-11 13:52N 40°36' W 074°01'0 0.1
2017-Sep-11 13:26N 40°36' W 074°01'0 0.2
2017-Sep-11 12:58N 40°35' W 074°01'0 0.0
2017-Sep-11 12:29N 40°35' W 074°01'0 0.0
2017-Sep-11 11:59N 40°35' W 074°01'0 0.0
2017-Sep-11 11:25N 40°35' W 074°01'0 0.1
2017-Sep-11 10:55N 40°35' W 074°01'0 0.0
2017-Sep-11 10:28N 40°35' W 074°01'0 0.0
2017-Sep-11 09:56N 40°35' W 074°01'0 0.0
2017-Sep-11 09:25N 40°35' W 074°01'0 0.0
2017-Sep-11 08:55N 40°35' W 074°01'0 0.0
2017-Sep-11 08:25N 40°35' W 074°01'0 0.0
2017-Sep-11 07:55N 40°35' W 074°01'0 0.0
2017-Sep-11 07:28N 40°35' W 074°01'0 0.0
2017-Sep-11 06:55N 40°35' W 074°01'0 0.1
2017-Sep-11 06:22N 40°35' W 074°01'0 0.0
2017-Sep-11 05:58N 40°35' W 074°01'0 0.0
2017-Sep-11 05:28N 40°35' W 074°01'0 0.0
2017-Sep-11 04:58N 40°35' W 074°01'0 0.1
2017-Sep-11 04:28N 40°35' W 074°01'0 0.1
2017-Sep-11 03:59N 40°35' W 074°01'0 0.0
2017-Sep-11 03:28N 40°35' W 074°01'0 0.0
2017-Sep-11 02:58N 40°35' W 074°01'0 0.1
2017-Sep-11 02:28N 40°36' W 074°01'0 0.1
2017-Sep-11 01:58N 40°36' W 074°01'0 0.0
2017-Sep-11 01:28N 40°36' W 074°01'0 0.2
2017-Sep-11 00:58N 40°36' W 074°01'0 0.1
2017-Sep-11 00:25N 40°35' W 074°01'0 0.0
2017-Sep-10 23:55N 40°35' W 074°01'0 0.1
2017-Sep-10 23:28N 40°35' W 074°01'0 0.1
2017-Sep-10 22:58N 40°35' W 074°01'0 0.0
2017-Sep-10 22:22N 40°35' W 074°01'0 0.0
2017-Sep-10 21:55N 40°35' W 074°01'0 0.0
2017-Sep-10 21:28N 40°35' W 074°01'0 0.0
2017-Sep-10 20:49N 40°35' W 074°01'0 0.0
2017-Sep-10 20:28N 40°35' W 074°01'0 0.0
2017-Sep-10 19:52N 40°35' W 074°01'0 0.0
2017-Sep-10 19:28N 40°35' W 074°01'0 0.0
2017-Sep-10 18:56N 40°35' W 074°01'0 0.0
2017-Sep-10 18:28N 40°35' W 074°01'0 0.0
2017-Sep-10 17:58N 40°35' W 074°01'0 0.0
2017-Sep-10 17:25N 40°35' W 074°01'0 0.0
2017-Sep-10 16:58N 40°35' W 074°01'0 0.0
2017-Sep-10 16:28N 40°35' W 074°01'  

Dump ship's entire track history